sensor_id;sensor_type;location;lat;lon;timestamp;pressure;altitude;pressure_sealevel;temperature;humidity
46756;BME280;32506;52.826;-1.192;2023-03-03T00:00:40;102335.56;;;5.87;55.10
46756;BME280;32506;52.826;-1.192;2023-03-03T00:03:08;102334.84;;;5.85;55.23
46756;BME280;32506;52.826;-1.192;2023-03-03T00:05:34;102334.84;;;5.85;54.95
46756;BME280;32506;52.826;-1.192;2023-03-03T00:08:00;102327.84;;;5.84;54.91
46756;BME280;32506;52.826;-1.192;2023-03-03T00:10:26;102337.63;;;5.83;55.01
46756;BME280;32506;52.826;-1.192;2023-03-03T00:12:52;102329.81;;;5.82;55.16
46756;BME280;32506;52.826;-1.192;2023-03-03T00:15:24;102335.25;;;5.80;55.45
46756;BME280;32506;52.826;-1.192;2023-03-03T00:17:51;102330.06;;;5.79;55.29
46756;BME280;32506;52.826;-1.192;2023-03-03T00:23:18;102336.38;;;5.78;55.20
46756;BME280;32506;52.826;-1.192;2023-03-03T00:25:45;102329.53;;;5.75;55.32
46756;BME280;32506;52.826;-1.192;2023-03-03T00:28:23;102330.50;;;5.74;55.34
46756;BME280;32506;52.826;-1.192;2023-03-03T00:30:50;102334.13;;;5.73;55.14
46756;BME280;32506;52.826;-1.192;2023-03-03T00:33:23;102339.44;;;5.73;54.96
46756;BME280;32506;52.826;-1.192;2023-03-03T00:35:52;102336.91;;;5.71;55.24
46756;BME280;32506;52.826;-1.192;2023-03-03T00:38:18;102334.41;;;5.70;54.77
46756;BME280;32506;52.826;-1.192;2023-03-03T00:40:44;102332.72;;;5.69;55.00
46756;BME280;32506;52.826;-1.192;2023-03-03T00:43:22;102334.53;;;5.68;55.34
46756;BME280;32506;52.826;-1.192;2023-03-03T00:45:55;102328.38;;;5.68;55.32
46756;BME280;32506;52.826;-1.192;2023-03-03T00:50:51;102338.31;;;5.66;55.32
46756;BME280;32506;52.826;-1.192;2023-03-03T00:53:18;102326.00;;;5.65;55.39
46756;BME280;32506;52.826;-1.192;2023-03-03T00:55:45;102335.81;;;5.64;55.41
46756;BME280;32506;52.826;-1.192;2023-03-03T00:58:12;102324.47;;;5.62;55.69
46756;BME280;32506;52.826;-1.192;2023-03-03T01:00:38;102330.63;;;5.63;55.24
46756;BME280;32506;52.826;-1.192;2023-03-03T01:03:08;102336.06;;;5.61;54.93
46756;BME280;32506;52.826;-1.192;2023-03-03T01:05:34;102331.59;;;5.62;55.46
46756;BME280;32506;52.826;-1.192;2023-03-03T01:08:01;102338.84;;;5.60;55.55
46756;BME280;32506;52.826;-1.192;2023-03-03T01:10:30;102333.53;;;5.60;55.46
46756;BME280;32506;52.826;-1.192;2023-03-03T01:12:56;102331.88;;;5.59;55.85
46756;BME280;32506;52.826;-1.192;2023-03-03T01:15:23;102327.56;;;5.58;55.63
46756;BME280;32506;52.826;-1.192;2023-03-03T01:17:49;102331.16;;;5.57;55.78
46756;BME280;32506;52.826;-1.192;2023-03-03T01:20:15;102333.81;;;5.57;55.45
46756;BME280;32506;52.826;-1.192;2023-03-03T01:22:41;102330.34;;;5.56;55.50
46756;BME280;32506;52.826;-1.192;2023-03-03T01:25:07;102338.31;;;5.56;55.52
46756;BME280;32506;52.826;-1.192;2023-03-03T01:27:34;102330.44;;;5.54;55.40
46756;BME280;32506;52.826;-1.192;2023-03-03T01:30:00;102340.22;;;5.54;55.75
46756;BME280;32506;52.826;-1.192;2023-03-03T01:32:26;102343.03;;;5.52;55.45
46756;BME280;32506;52.826;-1.192;2023-03-03T01:34:52;102345.81;;;5.51;55.39
46756;BME280;32506;52.826;-1.192;2023-03-03T01:37:18;102346.66;;;5.51;55.76
46756;BME280;32506;52.826;-1.192;2023-03-03T01:39:50;102341.47;;;5.50;55.17
46756;BME280;32506;52.826;-1.192;2023-03-03T01:42:16;102343.16;;;5.51;55.83
46756;BME280;32506;52.826;-1.192;2023-03-03T01:44:41;102349.59;;;5.48;55.35
46756;BME280;32506;52.826;-1.192;2023-03-03T01:47:21;102347.06;;;5.47;55.43
46756;BME280;32506;52.826;-1.192;2023-03-03T01:49:59;102353.34;;;5.46;55.69
46756;BME280;32506;52.826;-1.192;2023-03-03T01:52:31;102345.38;;;5.46;55.57
46756;BME280;32506;52.826;-1.192;2023-03-03T01:55:01;102349.00;;;5.45;55.55
46756;BME280;32506;52.826;-1.192;2023-03-03T01:57:34;102349.97;;;5.44;55.20
46756;BME280;32506;52.826;-1.192;2023-03-03T02:00:03;102349.00;;;5.45;55.13
46756;BME280;32506;52.826;-1.192;2023-03-03T02:02:30;102340.38;;;5.43;55.63
46756;BME280;32506;52.826;-1.192;2023-03-03T02:04:56;102343.13;;;5.41;55.31
46756;BME280;32506;52.826;-1.192;2023-03-03T02:07:23;102343.97;;;5.42;55.55
46756;BME280;32506;52.826;-1.192;2023-03-03T02:09:57;102343.97;;;5.42;55.57
46756;BME280;32506;52.826;-1.192;2023-03-03T02:12:31;102343.97;;;5.42;55.52
46756;BME280;32506;52.826;-1.192;2023-03-03T02:14:58;102341.47;;;5.40;55.50
46756;BME280;32506;52.826;-1.192;2023-03-03T02:17:23;102344.13;;;5.40;55.38
46756;BME280;32506;52.826;-1.192;2023-03-03T02:20:05;102345.91;;;5.40;55.57
46756;BME280;32506;52.826;-1.192;2023-03-03T02:22:38;102342.44;;;5.39;55.60
46756;BME280;32506;52.826;-1.192;2023-03-03T02:25:07;102340.75;;;5.38;56.03
46756;BME280;32506;52.826;-1.192;2023-03-03T02:27:35;102341.59;;;5.38;55.64
46756;BME280;32506;52.826;-1.192;2023-03-03T02:30:15;102340.75;;;5.38;55.82
46756;BME280;32506;52.826;-1.192;2023-03-03T02:32:41;102346.19;;;5.36;55.92
46756;BME280;32506;52.826;-1.192;2023-03-03T02:35:28;102350.53;;;5.37;55.35
46756;BME280;32506;52.826;-1.192;2023-03-03T02:38:11;102345.38;;;5.36;55.54
46756;BME280;32506;52.826;-1.192;2023-03-03T02:40:43;102342.81;;;5.34;55.22
46756;BME280;32506;52.826;-1.192;2023-03-03T02:43:13;102342.00;;;5.34;55.38
46756;BME280;32506;52.826;-1.192;2023-03-03T02:45:42;102340.31;;;5.33;55.77
46756;BME280;32506;52.826;-1.192;2023-03-03T02:48:07;102335.00;;;5.33;55.68
46756;BME280;32506;52.826;-1.192;2023-03-03T02:50:33;102332.34;;;5.33;55.50
46756;BME280;32506;52.826;-1.192;2023-03-03T02:52:58;102336.84;;;5.32;55.63
46756;BME280;32506;52.826;-1.192;2023-03-03T02:55:24;102336.84;;;5.32;55.80
46756;BME280;32506;52.826;-1.192;2023-03-03T02:57:49;102338.66;;;5.32;55.59
46756;BME280;32506;52.826;-1.192;2023-03-03T03:00:15;102343.97;;;5.32;55.75
46756;BME280;32506;52.826;-1.192;2023-03-03T03:02:40;102341.41;;;5.30;55.61
46756;BME280;32506;52.826;-1.192;2023-03-03T03:05:06;102337.13;;;5.29;55.86
46756;BME280;32506;52.826;-1.192;2023-03-03T03:07:33;102338.75;;;5.30;55.48
46756;BME280;32506;52.826;-1.192;2023-03-03T03:09:58;102343.25;;;5.30;55.75
46756;BME280;32506;52.826;-1.192;2023-03-03T03:12:24;102339.91;;;5.28;55.95
46756;BME280;32506;52.826;-1.192;2023-03-03T03:14:49;102335.44;;;5.28;55.38
46756;BME280;32506;52.826;-1.192;2023-03-03T03:17:15;102331.94;;;5.28;56.03
46756;BME280;32506;52.826;-1.192;2023-03-03T03:19:40;102338.09;;;5.28;55.79
46756;BME280;32506;52.826;-1.192;2023-03-03T03:22:06;102341.69;;;5.27;55.93
46756;BME280;32506;52.826;-1.192;2023-03-03T03:24:31;102335.56;;;5.27;55.64
46756;BME280;32506;52.826;-1.192;2023-03-03T03:26:56;102330.25;;;5.27;56.05
46756;BME280;32506;52.826;-1.192;2023-03-03T03:29:22;102331.22;;;5.26;56.11
46756;BME280;32506;52.826;-1.192;2023-03-03T03:31:47;102336.69;;;5.24;55.64
46756;BME280;32506;52.826;-1.192;2023-03-03T03:34:13;102336.69;;;5.24;56.19
46756;BME280;32506;52.826;-1.192;2023-03-03T03:36:38;102328.84;;;5.23;55.63
46756;BME280;32506;52.826;-1.192;2023-03-03T03:39:04;102332.34;;;5.23;55.86
46756;BME280;32506;52.826;-1.192;2023-03-03T03:41:30;102338.47;;;5.24;55.67
46756;BME280;32506;52.826;-1.192;2023-03-03T03:43:56;102334.16;;;5.23;55.76
46756;BME280;32506;52.826;-1.192;2023-03-03T03:46:22;102335.94;;;5.22;55.64
46756;BME280;32506;52.826;-1.192;2023-03-03T03:48:47;102334.31;;;5.21;55.97
46756;BME280;32506;52.826;-1.192;2023-03-03T03:51:13;102330.78;;;5.20;55.80
46756;BME280;32506;52.826;-1.192;2023-03-03T03:53:38;102325.63;;;5.19;55.42
46756;BME280;32506;52.826;-1.192;2023-03-03T03:56:04;102333.59;;;5.19;55.84
46756;BME280;32506;52.826;-1.192;2023-03-03T03:58:29;102330.09;;;5.18;55.72
46756;BME280;32506;52.826;-1.192;2023-03-03T04:01:04;102327.44;;;5.18;55.91
46756;BME280;32506;52.826;-1.192;2023-03-03T04:03:30;102330.09;;;5.18;55.39
46756;BME280;32506;52.826;-1.192;2023-03-03T04:05:55;102334.69;;;5.16;55.90
46756;BME280;32506;52.826;-1.192;2023-03-03T04:08:21;102331.06;;;5.17;55.99
46756;BME280;32506;52.826;-1.192;2023-03-03T04:10:46;102332.03;;;5.16;55.54
46756;BME280;32506;52.826;-1.192;2023-03-03T04:13:12;102330.22;;;5.17;55.95
46756;BME280;32506;52.826;-1.192;2023-03-03T04:15:37;102327.69;;;5.15;56.05
46756;BME280;32506;52.826;-1.192;2023-03-03T04:18:03;102338.31;;;5.15;55.88
46756;BME280;32506;52.826;-1.192;2023-03-03T04:20:29;102338.31;;;5.15;55.84
46756;BME280;32506;52.826;-1.192;2023-03-03T04:22:54;102326.88;;;5.15;55.92
46756;BME280;32506;52.826;-1.192;2023-03-03T04:25:21;102327.00;;;5.13;55.91
46756;BME280;32506;52.826;-1.192;2023-03-03T04:27:46;102327.00;;;5.13;56.15
46756;BME280;32506;52.826;-1.192;2023-03-03T04:30:14;102327.00;;;5.13;56.05
46756;BME280;32506;52.826;-1.192;2023-03-03T04:32:40;102326.16;;;5.13;55.78
46756;BME280;32506;52.826;-1.192;2023-03-03T04:35:05;102321.84;;;5.12;55.47
46756;BME280;32506;52.826;-1.192;2023-03-03T04:37:31;102324.50;;;5.12;55.64
46756;BME280;32506;52.826;-1.192;2023-03-03T04:39:57;102324.50;;;5.12;55.74
46756;BME280;32506;52.826;-1.192;2023-03-03T04:42:22;102328.13;;;5.11;55.89
46756;BME280;32506;52.826;-1.192;2023-03-03T04:44:47;102328.13;;;5.11;55.78
46756;BME280;32506;52.826;-1.192;2023-03-03T04:47:13;102318.63;;;5.08;55.81
46756;BME280;32506;52.826;-1.192;2023-03-03T04:49:38;102320.31;;;5.09;55.83
46756;BME280;32506;52.826;-1.192;2023-03-03T04:52:04;102330.03;;;5.09;55.93
46756;BME280;32506;52.826;-1.192;2023-03-03T04:54:30;102321.25;;;5.08;55.86
46756;BME280;32506;52.826;-1.192;2023-03-03T04:56:55;102322.22;;;5.07;55.74
46756;BME280;32506;52.826;-1.192;2023-03-03T04:59:21;102325.75;;;5.08;56.03
46756;BME280;32506;52.826;-1.192;2023-03-03T05:01:46;102323.19;;;5.06;55.57
46756;BME280;32506;52.826;-1.192;2023-03-03T05:04:12;102323.19;;;5.06;56.03
46756;BME280;32506;52.826;-1.192;2023-03-03T05:06:37;102332.00;;;5.07;56.08
46756;BME280;32506;52.826;-1.192;2023-03-03T05:09:03;102339.97;;;5.07;55.80
46756;BME280;32506;52.826;-1.192;2023-03-03T05:11:29;102330.31;;;5.06;55.98
46756;BME280;32506;52.826;-1.192;2023-03-03T05:13:54;102338.28;;;5.06;56.07
46756;BME280;32506;52.826;-1.192;2023-03-03T05:16:20;102334.78;;;5.05;56.16
46756;BME280;32506;52.826;-1.192;2023-03-03T05:18:45;102334.78;;;5.05;55.33
46756;BME280;32506;52.826;-1.192;2023-03-03T05:21:12;102342.75;;;5.05;55.89
46756;BME280;32506;52.826;-1.192;2023-03-03T05:23:37;102331.44;;;5.03;56.03
46756;BME280;32506;52.826;-1.192;2023-03-03T05:26:03;102332.25;;;5.03;55.85
46756;BME280;32506;52.826;-1.192;2023-03-03T05:28:28;102334.06;;;5.03;55.60
46756;BME280;32506;52.826;-1.192;2023-03-03T05:30:54;102331.44;;;5.03;56.01
46756;BME280;32506;52.826;-1.192;2023-03-03T05:33:19;102328.91;;;5.01;56.00
46756;BME280;32506;52.826;-1.192;2023-03-03T05:35:45;102327.94;;;5.02;55.52
46756;BME280;32506;52.826;-1.192;2023-03-03T05:38:11;102332.38;;;5.02;55.67
46756;BME280;32506;52.826;-1.192;2023-03-03T05:40:37;102332.53;;;5.00;55.52
46756;BME280;32506;52.826;-1.192;2023-03-03T05:43:02;102335.19;;;5.00;55.77
46756;BME280;32506;52.826;-1.192;2023-03-03T05:45:28;102340.47;;;5.00;55.64
46756;BME280;32506;52.826;-1.192;2023-03-03T05:47:53;102335.19;;;5.00;55.90
46756;BME280;32506;52.826;-1.192;2023-03-03T05:50:20;102350.25;;;5.00;55.79
46756;BME280;32506;52.826;-1.192;2023-03-03T05:52:48;102339.78;;;4.98;55.65
46756;BME280;32506;52.826;-1.192;2023-03-03T05:55:14;102343.25;;;4.99;55.83
46756;BME280;32506;52.826;-1.192;2023-03-03T05:57:39;102348.56;;;4.99;56.04
46756;BME280;32506;52.826;-1.192;2023-03-03T06:00:05;102347.75;;;4.98;55.48
46756;BME280;32506;52.826;-1.192;2023-03-03T06:02:32;102342.44;;;4.98;56.20
46756;BME280;32506;52.826;-1.192;2023-03-03T06:04:58;102343.25;;;4.99;55.65
46756;BME280;32506;52.826;-1.192;2023-03-03T06:07:24;102338.94;;;4.98;55.83
46756;BME280;32506;52.826;-1.192;2023-03-03T06:09:49;102332.81;;;4.97;55.91
46756;BME280;32506;52.826;-1.192;2023-03-03T06:12:15;102335.59;;;4.96;56.15
46756;BME280;32506;52.826;-1.192;2023-03-03T06:14:41;102337.38;;;4.95;56.02
46756;BME280;32506;52.826;-1.192;2023-03-03T06:17:06;102336.56;;;4.95;56.11
46756;BME280;32506;52.826;-1.192;2023-03-03T06:19:32;102335.72;;;4.94;55.98
46756;BME280;32506;52.826;-1.192;2023-03-03T06:21:57;102341.84;;;4.95;55.82
46756;BME280;32506;52.826;-1.192;2023-03-03T06:24:23;102347.97;;;4.95;55.66
46756;BME280;32506;52.826;-1.192;2023-03-03T06:26:51;102343.69;;;4.94;56.06
46756;BME280;32506;52.826;-1.192;2023-03-03T06:29:16;102346.31;;;4.94;55.67
46756;BME280;32506;52.826;-1.192;2023-03-03T06:31:42;102350.75;;;4.94;55.70
46756;BME280;32506;52.826;-1.192;2023-03-03T06:34:08;102345.59;;;4.92;56.08
46756;BME280;32506;52.826;-1.192;2023-03-03T06:36:34;102353.56;;;4.92;55.80
46756;BME280;32506;52.826;-1.192;2023-03-03T06:38:59;102349.06;;;4.93;55.86
46756;BME280;32506;52.826;-1.192;2023-03-03T06:41:25;102355.25;;;4.93;55.78
46756;BME280;32506;52.826;-1.192;2023-03-03T06:43:51;102350.91;;;4.92;55.41
46756;BME280;32506;52.826;-1.192;2023-03-03T06:46:16;102359.81;;;4.91;55.89
46756;BME280;32506;52.826;-1.192;2023-03-03T06:48:42;102359.00;;;4.91;55.96
46756;BME280;32506;52.826;-1.192;2023-03-03T06:51:34;102369.44;;;4.92;55.63
46756;BME280;32506;52.826;-1.192;2023-03-03T06:54:32;102365.13;;;4.91;56.04
46756;BME280;32506;52.826;-1.192;2023-03-03T06:57:13;102367.06;;;4.89;55.86
46756;BME280;32506;52.826;-1.192;2023-03-03T06:59:40;102370.56;;;4.90;56.16
46756;BME280;32506;52.826;-1.192;2023-03-03T07:02:13;102374.16;;;4.88;55.62
46756;BME280;32506;52.826;-1.192;2023-03-03T07:04:40;102380.31;;;4.89;55.87
46756;BME280;32506;52.826;-1.192;2023-03-03T07:07:23;102380.31;;;4.89;55.90
46756;BME280;32506;52.826;-1.192;2023-03-03T07:09:54;102378.63;;;4.88;55.79
46756;BME280;32506;52.826;-1.192;2023-03-03T07:12:28;102373.34;;;4.88;55.77
46756;BME280;32506;52.826;-1.192;2023-03-03T07:17:47;102385.88;;;4.86;55.96
46756;BME280;32506;52.826;-1.192;2023-03-03T07:20:22;102391.06;;;4.87;55.79
46756;BME280;32506;52.826;-1.192;2023-03-03T07:22:48;102396.47;;;4.86;56.22
46756;BME280;32506;52.826;-1.192;2023-03-03T07:25:29;102387.69;;;4.85;56.25
46756;BME280;32506;52.826;-1.192;2023-03-03T07:27:59;102392.16;;;4.85;55.97
46756;BME280;32506;52.826;-1.192;2023-03-03T07:30:27;102399.09;;;4.86;56.25
46756;BME280;32506;52.826;-1.192;2023-03-03T07:32:56;102407.06;;;4.86;56.14
46756;BME280;32506;52.826;-1.192;2023-03-03T07:35:36;102406.22;;;4.85;56.00
46756;BME280;32506;52.826;-1.192;2023-03-03T07:40:47;102409.84;;;4.84;55.70
46756;BME280;32506;52.826;-1.192;2023-03-03T07:43:25;102410.69;;;4.85;55.75
46756;BME280;32506;52.826;-1.192;2023-03-03T07:45:59;102420.44;;;4.84;55.74
46756;BME280;32506;52.826;-1.192;2023-03-03T07:48:35;102410.69;;;4.85;55.80
46756;BME280;32506;52.826;-1.192;2023-03-03T07:51:18;102412.34;;;4.86;55.80
46756;BME280;32506;52.826;-1.192;2023-03-03T07:53:43;102409.72;;;4.86;55.83
46756;BME280;32506;52.826;-1.192;2023-03-03T07:56:30;102414.19;;;4.85;56.14
46756;BME280;32506;52.826;-1.192;2023-03-03T07:58:59;102416.00;;;4.85;55.90
46756;BME280;32506;52.826;-1.192;2023-03-03T08:01:35;102414.19;;;4.85;55.94
46756;BME280;32506;52.826;-1.192;2023-03-03T08:04:28;102417.66;;;4.86;56.16
46756;BME280;32506;52.826;-1.192;2023-03-03T08:06:58;102419.47;;;4.85;56.22
46756;BME280;32506;52.826;-1.192;2023-03-03T08:09:42;102432.72;;;4.85;56.32
46756;BME280;32506;52.826;-1.192;2023-03-03T08:12:18;102420.31;;;4.86;55.93
46756;BME280;32506;52.826;-1.192;2023-03-03T08:14:46;102428.25;;;4.86;56.00
46756;BME280;32506;52.826;-1.192;2023-03-03T08:17:23;102430.06;;;4.85;56.36
46756;BME280;32506;52.826;-1.192;2023-03-03T08:19:50;102432.72;;;4.85;55.89
46756;BME280;32506;52.826;-1.192;2023-03-03T08:22:30;102438.75;;;4.87;56.06
46756;BME280;32506;52.826;-1.192;2023-03-03T08:24:57;102440.41;;;4.88;56.45
46756;BME280;32506;52.826;-1.192;2023-03-03T08:27:22;102438.63;;;4.89;55.88
46756;BME280;32506;52.826;-1.192;2023-03-03T08:29:48;102432.44;;;4.88;56.12
46756;BME280;32506;52.826;-1.192;2023-03-03T08:32:14;102433.31;;;4.89;56.12
46756;BME280;32506;52.826;-1.192;2023-03-03T08:34:40;102434.97;;;4.90;56.06
46756;BME280;32506;52.826;-1.192;2023-03-03T08:37:05;102441.97;;;4.91;55.96
46756;BME280;32506;52.826;-1.192;2023-03-03T08:39:31;102441.00;;;4.92;56.43
46756;BME280;32506;52.826;-1.192;2023-03-03T08:41:57;102438.34;;;4.92;56.08
46756;BME280;32506;52.826;-1.192;2023-03-03T08:44:22;102441.81;;;4.93;55.99
46756;BME280;32506;52.826;-1.192;2023-03-03T08:46:48;102440.84;;;4.94;56.04
46756;BME280;32506;52.826;-1.192;2023-03-03T08:49:14;102446.16;;;4.94;56.23
46756;BME280;32506;52.826;-1.192;2023-03-03T08:51:39;102442.53;;;4.95;55.95
46756;BME280;32506;52.826;-1.192;2023-03-03T08:54:05;102445.06;;;4.96;56.10
46756;BME280;32506;52.826;-1.192;2023-03-03T08:56:30;102437.94;;;4.97;56.01
46756;BME280;32506;52.826;-1.192;2023-03-03T08:58:56;102445.78;;;4.98;56.00
46756;BME280;32506;52.826;-1.192;2023-03-03T09:01:21;102441.31;;;4.99;55.95
46756;BME280;32506;52.826;-1.192;2023-03-03T09:03:47;102443.97;;;4.99;56.24
46756;BME280;32506;52.826;-1.192;2023-03-03T09:06:12;102451.66;;;5.02;56.24
46756;BME280;32506;52.826;-1.192;2023-03-03T09:08:38;102448.16;;;5.01;56.15
46756;BME280;32506;52.826;-1.192;2023-03-03T09:11:13;102454.16;;;5.03;56.23
46756;BME280;32506;52.826;-1.192;2023-03-03T09:13:39;102446.09;;;5.05;56.54
46756;BME280;32506;52.826;-1.192;2023-03-03T09:16:14;102453.94;;;5.07;56.62
46756;BME280;32506;52.826;-1.192;2023-03-03T09:18:41;102448.63;;;5.07;56.15
46756;BME280;32506;52.826;-1.192;2023-03-03T09:21:22;102450.19;;;5.09;56.54
46756;BME280;32506;52.826;-1.192;2023-03-03T09:23:56;102458.00;;;5.11;56.60
46756;BME280;32506;52.826;-1.192;2023-03-03T09:26:46;102450.72;;;5.13;56.53
46756;BME280;32506;52.826;-1.192;2023-03-03T09:29:29;102451.59;;;5.13;56.39
46756;BME280;32506;52.826;-1.192;2023-03-03T09:32:00;102453.28;;;5.14;56.70
46756;BME280;32506;52.826;-1.192;2023-03-03T09:37:11;102463.59;;;5.17;56.81
46756;BME280;32506;52.826;-1.192;2023-03-03T09:39:39;102456.47;;;5.18;56.59
46756;BME280;32506;52.826;-1.192;2023-03-03T09:50:47;102462.25;;;5.23;56.37
46756;BME280;32506;52.826;-1.192;2023-03-03T10:06:34;102471.09;;;5.33;56.46
46756;BME280;32506;52.826;-1.192;2023-03-03T10:17:52;102472.97;;;5.43;57.27
46756;BME280;32506;52.826;-1.192;2023-03-03T10:29:02;102480.69;;;5.55;57.63
46756;BME280;32506;52.826;-1.192;2023-03-03T10:32:11;102479.44;;;5.60;57.32
46756;BME280;32506;52.826;-1.192;2023-03-03T10:37:52;102481.44;;;5.67;57.50
46756;BME280;32506;52.826;-1.192;2023-03-03T10:40:30;102480.03;;;5.73;58.02
46756;BME280;32506;52.826;-1.192;2023-03-03T10:48:23;102478.16;;;5.95;58.93
46756;BME280;32506;52.826;-1.192;2023-03-03T10:51:20;102480.16;;;6.02;58.48
46756;BME280;32506;52.826;-1.192;2023-03-03T10:54:15;102486.34;;;6.13;59.03
46756;BME280;32506;52.826;-1.192;2023-03-03T11:02:17;102483.16;;;6.38;59.01
46756;BME280;32506;52.826;-1.192;2023-03-03T11:07:23;102482.06;;;6.51;59.06
46756;BME280;32506;52.826;-1.192;2023-03-03T11:18:10;102479.13;;;6.74;59.44
46756;BME280;32506;52.826;-1.192;2023-03-03T11:23:17;102483.44;;;6.84;59.73
46756;BME280;32506;52.826;-1.192;2023-03-03T11:26:08;102480.91;;;6.93;59.32
46756;BME280;32506;52.826;-1.192;2023-03-03T11:31:28;102480.63;;;7.05;59.68
46756;BME280;32506;52.826;-1.192;2023-03-03T11:34:28;102494.88;;;7.14;59.95
46756;BME280;32506;52.826;-1.192;2023-03-03T11:37:11;102494.31;;;7.20;60.08
46756;BME280;32506;52.826;-1.192;2023-03-03T11:39:40;102500.88;;;7.26;59.41
46756;BME280;32506;52.826;-1.192;2023-03-03T11:45:25;102495.41;;;7.37;59.73
46756;BME280;32506;52.826;-1.192;2023-03-03T11:48:06;102502.09;;;7.42;59.14
46756;BME280;32506;52.826;-1.192;2023-03-03T11:53:25;102504.72;;;7.51;59.45
46756;BME280;32506;52.826;-1.192;2023-03-03T11:55:59;102499.25;;;7.53;58.83
46756;BME280;32506;52.826;-1.192;2023-03-03T11:58:38;102498.97;;;7.56;59.30
46756;BME280;32506;52.826;-1.192;2023-03-03T12:01:29;102505.69;;;7.60;58.73
46756;BME280;32506;52.826;-1.192;2023-03-03T12:04:03;102498.53;;;7.61;58.59
46756;BME280;32506;52.826;-1.192;2023-03-03T12:12:42;102500.72;;;7.65;58.66
46756;BME280;32506;52.826;-1.192;2023-03-03T12:15:35;102505.94;;;7.67;58.76
46756;BME280;32506;52.826;-1.192;2023-03-03T12:18:33;102496.94;;;7.68;58.83
46756;BME280;32506;52.826;-1.192;2023-03-03T12:21:13;102501.28;;;7.69;58.62
46756;BME280;32506;52.826;-1.192;2023-03-03T12:23:45;102493.31;;;7.69;58.25
46756;BME280;32506;52.826;-1.192;2023-03-03T12:26:29;102495.81;;;7.70;58.43
46756;BME280;32506;52.826;-1.192;2023-03-03T12:34:46;102489.38;;;7.73;58.09
46756;BME280;32506;52.826;-1.192;2023-03-03T12:40:33;102486.41;;;7.76;57.96
46756;BME280;32506;52.826;-1.192;2023-03-03T12:45:36;102495.91;;;7.79;57.94
46756;BME280;32506;52.826;-1.192;2023-03-03T12:51:03;102491.97;;;7.83;58.39
46756;BME280;32506;52.826;-1.192;2023-03-03T12:56:19;102486.66;;;7.83;57.80
46756;BME280;32506;52.826;-1.192;2023-03-03T12:59:03;102478.53;;;7.84;58.18
46756;BME280;32506;52.826;-1.192;2023-03-03T13:01:52;102479.38;;;7.85;58.36
46756;BME280;32506;52.826;-1.192;2023-03-03T13:04:28;102480.34;;;7.84;58.25
46756;BME280;32506;52.826;-1.192;2023-03-03T13:07:38;102475.72;;;7.86;57.66
46756;BME280;32506;52.826;-1.192;2023-03-03T13:13:16;102463.25;;;7.86;57.92
46756;BME280;32506;52.826;-1.192;2023-03-03T13:16:00;102455.09;;;7.88;57.79
46756;BME280;32506;52.826;-1.192;2023-03-03T13:18:28;102451.44;;;7.89;58.17
46756;BME280;32506;52.826;-1.192;2023-03-03T13:21:20;102446.84;;;7.91;57.88
46756;BME280;32506;52.826;-1.192;2023-03-03T13:24:22;102454.66;;;7.93;58.39
46756;BME280;32506;52.826;-1.192;2023-03-03T13:29:34;102449.75;;;7.98;58.44
46756;BME280;32506;52.826;-1.192;2023-03-03T13:32:08;102449.44;;;8.01;58.33
46756;BME280;32506;52.826;-1.192;2023-03-03T13:40:02;102449.81;;;8.06;58.43
46756;BME280;32506;52.826;-1.192;2023-03-03T13:42:49;102450.34;;;8.10;57.87
46756;BME280;32506;52.826;-1.192;2023-03-03T13:45:28;102452.03;;;8.11;57.94
46756;BME280;32506;52.826;-1.192;2023-03-03T13:59:20;102449.28;;;8.20;58.26
46756;BME280;32506;52.826;-1.192;2023-03-03T14:01:58;102434.97;;;8.21;58.26
46756;BME280;32506;52.826;-1.192;2023-03-03T14:07:36;102426.53;;;8.26;57.77
46756;BME280;32506;52.826;-1.192;2023-03-03T14:10:18;102426.38;;;8.28;58.40
46756;BME280;32506;52.826;-1.192;2023-03-03T14:13:11;102427.06;;;8.30;58.26
46756;BME280;32506;52.826;-1.192;2023-03-03T14:18:34;102430.81;;;8.37;58.36
46756;BME280;32506;52.826;-1.192;2023-03-03T14:21:22;102428.66;;;8.40;58.62
46756;BME280;32506;52.826;-1.192;2023-03-03T14:26:28;102429.94;;;8.46;58.41
46756;BME280;32506;52.826;-1.192;2023-03-03T14:29:12;102429.44;;;8.51;58.65
46756;BME280;32506;52.826;-1.192;2023-03-03T14:31:41;102420.16;;;8.55;58.32
46756;BME280;32506;52.826;-1.192;2023-03-03T14:36:50;102421.06;;;8.64;58.61
46756;BME280;32506;52.826;-1.192;2023-03-03T14:39:36;102412.44;;;8.70;58.62
46756;BME280;32506;52.826;-1.192;2023-03-03T14:42:13;102408.47;;;8.74;58.99
46756;BME280;32506;52.826;-1.192;2023-03-03T14:47:22;102414.69;;;8.83;58.92
46756;BME280;32506;52.826;-1.192;2023-03-03T14:49:49;102410.03;;;8.85;58.71
46756;BME280;32506;52.826;-1.192;2023-03-03T14:54:42;102409.25;;;8.93;58.78
46756;BME280;32506;52.826;-1.192;2023-03-03T14:57:38;102414.63;;;9.01;58.92
46756;BME280;32506;52.826;-1.192;2023-03-03T15:03:21;102406.19;;;9.05;58.89
46756;BME280;32506;52.826;-1.192;2023-03-03T15:05:54;102402.38;;;9.08;58.63
46756;BME280;32506;52.826;-1.192;2023-03-03T15:08:31;102401.22;;;9.11;58.97
46756;BME280;32506;52.826;-1.192;2023-03-03T15:11:19;102389.41;;;9.13;58.82
46756;BME280;32506;52.826;-1.192;2023-03-03T15:13:45;102383.91;;;9.15;58.50
46756;BME280;32506;52.826;-1.192;2023-03-03T15:16:19;102385.41;;;9.17;58.40
46756;BME280;32506;52.826;-1.192;2023-03-03T15:19:24;102382.41;;;9.20;58.52
46756;BME280;32506;52.826;-1.192;2023-03-03T15:22:04;102381.25;;;9.23;58.53
46756;BME280;32506;52.826;-1.192;2023-03-03T15:24:40;102377.44;;;9.26;58.47
46756;BME280;32506;52.826;-1.192;2023-03-03T15:27:26;102382.44;;;9.29;58.54
46756;BME280;32506;52.826;-1.192;2023-03-03T15:30:04;102372.59;;;9.29;58.43
46756;BME280;32506;52.826;-1.192;2023-03-03T15:32:50;102372.31;;;9.32;58.62
46756;BME280;32506;52.826;-1.192;2023-03-03T15:37:59;102372.66;;;9.37;58.72
46756;BME280;32506;52.826;-1.192;2023-03-03T15:40:47;102368.16;;;9.38;58.62
46756;BME280;32506;52.826;-1.192;2023-03-03T15:48:49;102370.19;;;9.52;58.00
46756;BME280;32506;52.826;-1.192;2023-03-03T15:54:58;102362.69;;;9.56;58.40
46756;BME280;32506;52.826;-1.192;2023-03-03T15:57:17;102365.22;;;9.57;58.31